createdAt,value
2022-10-16T00:00:33.315Z,0.146160007
2022-10-16T00:03:36.934Z,0.146160007
2022-10-16T00:04:37.108Z,0.064960003
2022-10-16T00:05:38.699Z,0.089320004
2022-10-16T00:06:35.937Z,0.154280007
2022-10-16T00:07:40.745Z,0.097440004
2022-10-16T00:08:36.402Z,0.064960003
2022-10-16T00:09:46.274Z,0.056840003
2022-10-16T00:10:44.529Z,0.129920006
2022-10-16T00:12:43.245Z,0.121800005
2022-10-16T00:13:35.656Z,0.048720002
2022-10-16T00:14:35.039Z,0.040600002
2022-10-16T00:15:31.720Z,0.097440004
2022-10-16T00:17:29.423Z,0.097440004
2022-10-16T00:18:29.076Z,0.138040006
2022-10-16T00:19:24.437Z,0.064960003
2022-10-16T00:20:25.438Z,0.073080003
2022-10-16T00:22:26.803Z,0.203000009
2022-10-16T00:23:18.717Z,0.073080003
2022-10-16T00:24:19.289Z,0.048720002
2022-10-16T00:25:17.607Z,0.081200004
2022-10-16T00:26:19.557Z,0.113680005
2022-10-16T00:27:19.336Z,0.121800005
2022-10-16T00:28:13.590Z,0.081200004
2022-10-16T00:29:15.357Z,0.089320004
2022-10-16T00:30:13.301Z,0.064960003
2022-10-16T00:31:14.363Z,0.081200004
2022-10-16T00:32:05.809Z,0.00812
2022-10-16T00:33:06.905Z,0.064960003
2022-10-16T00:34:07.266Z,0.097440004
2022-10-16T00:36:16.774Z,0.048720002
2022-10-16T00:38:16.311Z,0.129920006
2022-10-16T00:39:15.839Z,0.105560005
2022-10-16T00:40:15.935Z,0.056840003
2022-10-16T00:41:13.822Z,0.089320004
2022-10-16T00:42:14.135Z,0.162400007
2022-10-16T00:43:14.416Z,0.113680005
2022-10-16T00:44:15.713Z,0.113680005
2022-10-16T00:45:09.734Z,0.138040006
2022-10-16T00:46:07.457Z,0.121800005
2022-10-16T00:48:10.997Z,0.129920006
2022-10-16T00:49:05.071Z,0.056840003
2022-10-16T00:50:11.269Z,0.081200004
2022-10-16T00:51:06.772Z,0.097440004
2022-10-16T00:53:07.637Z,0.016240001
2022-10-16T00:54:06.009Z,0.081200004
2022-10-16T00:55:05.883Z,0.081200004
2022-10-16T00:56:10.145Z,0.121800005
2022-10-16T00:58:06.381Z,0.089320004
2022-10-16T00:59:10.365Z,0.105560005
2022-10-16T01:00:05.539Z,0.121800005
2022-10-16T01:01:10.819Z,0.089320004
2022-10-16T01:03:20.409Z,0.105560005
2022-10-16T01:04:13.080Z,0.097440004
2022-10-16T01:05:11.714Z,0.105560005
2022-10-16T01:06:12.646Z,0.089320004
2022-10-16T01:08:14.355Z,0.121800005
2022-10-16T01:12:21.575Z,0.097440004
2022-10-16T01:13:20.819Z,0.097440004
2022-10-16T01:14:32.308Z,0.032480001
2022-10-16T01:15:30.320Z,0.146160007
2022-10-16T01:17:33.123Z,0.040600002
2022-10-16T01:18:40.837Z,0.105560005
2022-10-16T01:19:41.440Z,0.040600002
2022-10-16T01:20:45.659Z,0.081200004
2022-10-16T01:22:57.184Z,0.105560005
2022-10-16T01:23:57.308Z,0.162400007
2022-10-16T01:24:58.798Z,0.097440004
2022-10-16T01:25:55.812Z,0.105560005
2022-10-16T01:27:09.062Z,0.073080003
2022-10-16T01:28:05.883Z,0.064960003
2022-10-16T01:29:05.035Z,0.089320004
2022-10-16T01:30:06.602Z,0.146160007
2022-10-16T01:31:03.692Z,0.040600002
2022-10-16T01:33:03.121Z,0.081200004
2022-10-16T01:34:09.528Z,0.097440004
2022-10-16T01:35:04.224Z,0.121800005
2022-10-16T01:36:05.065Z,0.081200004
2022-10-16T01:38:05.625Z,0.089320004
2022-10-16T01:39:07.245Z,0.129920006
2022-10-16T01:41:11.980Z,0.186760008
2022-10-16T01:43:12.851Z,0.089320004
2022-10-16T01:44:09.123Z,0.089320004
2022-10-16T01:45:08.772Z,0.081200004
2022-10-16T01:46:08.004Z,0
2022-10-16T01:48:20.255Z,-0.016240001
2022-10-16T01:49:16.501Z,0.097440004
2022-10-16T01:50:19.789Z,0.073080003
2022-10-16T01:51:16.287Z,0.089320004
2022-10-16T01:53:13.571Z,0.154280007
2022-10-16T01:54:13.538Z,0.081200004
2022-10-16T01:55:08.834Z,0.097440004
2022-10-16T01:56:07.203Z,0.113680005
2022-10-16T01:58:10.342Z,0.073080003
2022-10-16T01:59:13.544Z,0.089320004
2022-10-16T02:00:08.248Z,0
2022-10-16T02:01:12.999Z,0.113680005
2022-10-16T02:03:08.344Z,0.105560005
2022-10-16T02:04:01.257Z,0.105560005
2022-10-16T02:05:04.099Z,0.064960003
2022-10-16T02:06:05.815Z,0.097440004
2022-10-16T02:07:07.977Z,0.097440004
2022-10-16T02:08:05.563Z,0.097440004
2022-10-16T02:09:08.797Z,0.056840003
2022-10-16T02:10:08.896Z,0.186760008
2022-10-16T02:11:12.423Z,0.105560005
2022-10-16T02:13:05.565Z,0.040600002
2022-10-16T02:14:14.309Z,0.129920006
2022-10-16T02:15:13.653Z,0.113680005
2022-10-16T02:16:08.954Z,0.097440004
2022-10-16T02:18:06.851Z,0.178640008
2022-10-16T02:19:09.499Z,0.162400007
2022-10-16T02:20:06.113Z,0.040600002
2022-10-16T02:21:05.796Z,0
2022-10-16T02:22:01.969Z,0.121800005
2022-10-16T02:23:03.856Z,0.146160007
2022-10-16T02:24:00.170Z,0.113680005
2022-10-16T02:25:03.099Z,0.064960003
2022-10-16T02:25:56.530Z,0.081200004
2022-10-16T02:28:00.991Z,0.121800005
2022-10-16T02:29:03.219Z,0.064960003
2022-10-16T02:29:59.582Z,0.048720002
2022-10-16T02:31:04.053Z,0.178640008
2022-10-16T02:33:18.825Z,0.032480001
2022-10-16T02:33:58.639Z,0.170520008
2022-10-16T02:34:56.195Z,0.073080003
2022-10-16T02:35:59.088Z,0.186760008
2022-10-16T02:36:55.546Z,0.113680005
2022-10-16T02:37:55.479Z,0.105560005
2022-10-16T02:38:52.353Z,0.113680005
2022-10-16T02:39:52.374Z,0.089320004
2022-10-16T02:40:53.001Z,0.105560005
2022-10-16T02:42:48.082Z,0.146160007
2022-10-16T02:43:50.546Z,0.064960003
2022-10-16T02:44:43.043Z,0.024360001
2022-10-16T02:45:47.435Z,0.089320004
2022-10-16T02:47:49.584Z,0.121800005
2022-10-16T02:48:47.691Z,0.064960003
2022-10-16T02:49:52.159Z,0.081200004
2022-10-16T02:50:49.375Z,0.081200004
2022-10-16T02:51:50.450Z,0.064960003
2022-10-16T02:52:47.764Z,0.089320004
2022-10-16T02:53:50.585Z,0.024360001
2022-10-16T02:54:47.043Z,0.016240001
2022-10-16T02:55:52.490Z,0.186760008
2022-10-16T02:56:44.963Z,0.121800005
2022-10-16T02:57:49.399Z,0.048720002
2022-10-16T02:58:43.825Z,0.089320004
2022-10-16T02:59:45.715Z,0.121800005
2022-10-16T03:00:42.047Z,0.048720002
2022-10-16T03:02:42.376Z,0.121800005
2022-10-16T03:03:38.082Z,0.129920006
2022-10-16T03:04:41.032Z,0.113680005
2022-10-16T03:05:40.633Z,0.016240001
2022-10-16T03:07:38.514Z,0.056840003
2022-10-16T03:08:50.538Z,0.064960003
2022-10-16T03:09:46.156Z,0.146160007
2022-10-16T03:10:51.614Z,0.162400007
2022-10-16T03:11:44.684Z,0.089320004
2022-10-16T03:12:44.062Z,0.162400007
2022-10-16T03:13:49.714Z,0.064960003
2022-10-16T03:14:44.363Z,0.105560005
2022-10-16T03:16:19.621Z,0.040600002
2022-10-16T03:18:46.786Z,0.113680005
2022-10-16T03:19:46.040Z,0.121800005
2022-10-16T03:20:51.066Z,0.056840003
2022-10-16T03:21:55.343Z,0.056840003
2022-10-16T03:22:53.369Z,0.146160007
2022-10-16T03:23:56.568Z,0.121800005
2022-10-16T03:24:52.768Z,0.089320004
2022-10-16T03:25:53.941Z,0.138040006
2022-10-16T03:26:54.011Z,0.081200004
2022-10-16T03:27:58.491Z,0.081200004
2022-10-16T03:28:55.092Z,0.097440004
2022-10-16T03:29:57.986Z,0.00812
2022-10-16T03:30:59.547Z,0.105560005
2022-10-16T03:31:57.734Z,0.129920006
2022-10-16T03:32:58.130Z,0.138040006
2022-10-16T03:33:56.458Z,0.089320004
2022-10-16T03:35:03.600Z,0.089320004
2022-10-16T03:35:59.902Z,0.129920006
2022-10-16T03:37:02.047Z,0.089320004
2022-10-16T03:38:00.950Z,0.138040006
2022-10-16T03:39:10.968Z,0.073080003
2022-10-16T03:40:05.743Z,0.121800005
2022-10-16T03:41:11.023Z,0.097440004
2022-10-16T03:43:09.054Z,0.073080003
2022-10-16T03:44:04.944Z,0.064960003
2022-10-16T03:45:07.472Z,0.073080003
2022-10-16T03:46:10.369Z,0.064960003
2022-10-16T03:47:05.828Z,0.113680005
2022-10-16T03:48:12.735Z,0.081200004
2022-10-16T03:49:08.862Z,0.105560005
2022-10-16T03:50:09.043Z,0.113680005
2022-10-16T03:51:10.462Z,0.089320004
2022-10-16T03:53:14.141Z,0.178640008
2022-10-16T03:54:07.925Z,0.113680005
2022-10-16T03:55:14.522Z,0.040600002
2022-10-16T03:56:11.045Z,0.097440004
2022-10-16T03:57:53.845Z,0.129920006
2022-10-16T03:59:27.312Z,0.113680005
2022-10-16T04:01:09.335Z,0.129920006
2022-10-16T04:05:26.369Z,0.097440004
2022-10-16T04:06:28.446Z,0.073080003
2022-10-16T04:07:28.941Z,0.032480001
2022-10-16T04:08:25.507Z,0.064960003
2022-10-16T04:09:24.954Z,0.105560005
2022-10-16T04:10:20.229Z,0.048720002
2022-10-16T04:11:24.164Z,0.073080003
2022-10-16T04:12:27.638Z,0.105560005
2022-10-16T04:13:25.603Z,0.105560005
2022-10-16T04:14:24.746Z,0.121800005
2022-10-16T04:15:18.514Z,0.121800005
2022-10-16T04:17:21.625Z,0.064960003
2022-10-16T04:18:15.870Z,0.097440004
2022-10-16T04:19:21.250Z,0.081200004
2022-10-16T04:20:17.465Z,0.146160007
2022-10-16T04:21:19.322Z,0.048720002
2022-10-16T04:22:21.765Z,0.048720002
2022-10-16T04:23:17.987Z,0.081200004
2022-10-16T04:24:16.148Z,0.056840003
2022-10-16T04:25:09.664Z,0.097440004
2022-10-16T04:26:16.099Z,0.040600002
2022-10-16T04:28:12.229Z,0.056840003
2022-10-16T04:29:13.161Z,0.048720002
2022-10-16T04:30:06.879Z,0.097440004
2022-10-16T04:31:13.194Z,0.162400007
2022-10-16T04:32:07.777Z,0.064960003
2022-10-16T04:33:58.877Z,0.138040006
2022-10-16T04:34:58.267Z,0.064960003
2022-10-16T04:38:05.811Z,0.040600002
2022-10-16T04:39:05.579Z,0.073080003
2022-10-16T04:40:07.732Z,0.113680005
2022-10-16T04:41:04.172Z,0.154280007
2022-10-16T04:42:06.233Z,0.073080003
2022-10-16T04:43:06.424Z,0.024360001
2022-10-16T04:44:06.106Z,0.048720002
2022-10-16T04:45:02.511Z,0.081200004
2022-10-16T04:46:03.120Z,0.00812
2022-10-16T04:48:03.202Z,0.073080003
2022-10-16T04:49:01.314Z,0.073080003
2022-10-16T04:50:04.828Z,0.032480001
2022-10-16T04:51:10.094Z,0.073080003
2022-10-16T04:53:03.613Z,0.113680005
2022-10-16T04:54:06.179Z,0.048720002
2022-10-16T04:55:01.070Z,0.056840003
2022-10-16T04:56:04.593Z,0.121800005
2022-10-16T04:58:02.688Z,0.048720002
2022-10-16T04:59:02.090Z,0.056840003
2022-10-16T05:00:02.724Z,0.129920006
2022-10-16T05:00:59.217Z,0.081200004
2022-10-16T05:02:54.621Z,0.194880009
2022-10-16T05:03:57.947Z,0.048720002
2022-10-16T05:04:59.712Z,0.089320004
2022-10-16T05:06:02.912Z,0.040600002
2022-10-16T05:07:01.325Z,0.048720002
2022-10-16T05:08:04.307Z,0.056840003
2022-10-16T05:09:07.586Z,0.056840003
2022-10-16T05:10:11.749Z,0.040600002
2022-10-16T05:11:06.200Z,0.064960003
2022-10-16T05:12:06.430Z,0.121800005
2022-10-16T05:13:09.409Z,0.081200004
2022-10-16T05:15:49.219Z,0.048720002
2022-10-16T05:17:47.241Z,0.040600002
2022-10-16T05:18:44.854Z,0.081200004
2022-10-16T05:19:44.836Z,0.064960003
2022-10-16T05:20:40.692Z,0.113680005
2022-10-16T05:21:40.729Z,0.105560005
2022-10-16T05:22:38.025Z,0.121800005
2022-10-16T05:23:38.537Z,0.105560005
2022-10-16T05:24:33.946Z,0.170520008
2022-10-16T05:25:34.351Z,0.097440004
2022-10-16T05:27:31.822Z,0.081200004
2022-10-16T05:28:29.677Z,0.040600002
2022-10-16T05:29:24.150Z,0.105560005
2022-10-16T05:30:20.879Z,0.113680005
2022-10-16T05:31:22.560Z,0.097440004
2022-10-16T05:32:17.768Z,0.170520008
2022-10-16T05:33:16.698Z,0.097440004
2022-10-16T05:34:13.766Z,0.097440004
2022-10-16T05:35:13.073Z,0.113680005
2022-10-16T05:36:11.970Z,0.048720002
2022-10-16T05:37:07.833Z,0.162400007
2022-10-16T05:38:10.294Z,0.097440004
2022-10-16T05:39:10.453Z,0.129920006
2022-10-16T05:40:06.822Z,0.113680005
2022-10-16T05:41:09.720Z,0.081200004
2022-10-16T05:43:06.336Z,0.081200004
2022-10-16T05:44:00.704Z,0.056840003
2022-10-16T05:44:57.544Z,0.129920006
2022-10-16T05:46:00.908Z,0.081200004
2022-10-16T05:47:59.954Z,0.064960003
2022-10-16T05:48:54.582Z,0.056840003
2022-10-16T05:50:00.976Z,0.064960003
2022-10-16T05:51:01.069Z,0.138040006
2022-10-16T05:51:58.822Z,0.121800005
2022-10-16T05:52:58.745Z,0.097440004
2022-10-16T05:53:59.347Z,0.048720002
2022-10-16T05:55:01.454Z,0.113680005
2022-10-16T05:55:58.089Z,0.097440004
2022-10-16T05:57:52.841Z,0.146160007
2022-10-16T05:59:27.534Z,0.162400007
2022-10-16T06:00:34.443Z,0.154280007
2022-10-16T06:02:29.205Z,0.162400007
2022-10-16T06:03:24.001Z,0.154280007
2022-10-16T06:04:24.489Z,0.129920006
2022-10-16T06:05:20.034Z,0.073080003
2022-10-16T06:07:25.621Z,0.138040006
2022-10-16T06:08:25.616Z,0.097440004
2022-10-16T06:09:20.658Z,0.113680005
2022-10-16T06:10:25.354Z,0.162400007
2022-10-16T06:11:26.244Z,0.105560005
2022-10-16T06:12:23.443Z,0.097440004
2022-10-16T06:13:25.857Z,0.040600002
2022-10-16T06:14:20.180Z,0.178640008
2022-10-16T06:15:18.841Z,0.097440004
2022-10-16T06:16:14.053Z,0.105560005
2022-10-16T06:17:13.348Z,0.162400007
2022-10-16T06:18:13.774Z,0.097440004
2022-10-16T06:19:09.168Z,0.170520008
2022-10-16T06:20:11.439Z,0.267960012
2022-10-16T06:21:09.723Z,0.21924001
2022-10-16T06:23:13.902Z,0.211120009
2022-10-16T06:24:12.186Z,0.186760008
2022-10-16T06:25:11.899Z,0.170520008
2022-10-16T06:26:15.562Z,0.162400007
2022-10-16T06:28:14.034Z,0.146160007
2022-10-16T06:29:12.302Z,0.316680014
2022-10-16T06:30:15.177Z,0.22736001
2022-10-16T06:31:15.699Z,0.121800005
2022-10-16T06:33:14.225Z,0.316680014
2022-10-16T06:34:12.453Z,0.178640008
2022-10-16T06:35:15.835Z,0.373520017
2022-10-16T06:36:11.124Z,0.316680014
2022-10-16T06:37:47.999Z,0.365400016
2022-10-16T06:38:43.787Z,0.235480011
2022-10-16T06:39:46.147Z,0.389760017
2022-10-16T06:40:41.771Z,0.267960012
2022-10-16T06:42:38.418Z,0.251720011
2022-10-16T06:43:36.778Z,0.300440013
2022-10-16T06:44:39.487Z,0.389760017
2022-10-16T06:48:03.323Z,0.406000018
2022-10-16T06:49:07.165Z,0.316680014
2022-10-16T06:50:03.445Z,0.349160016
2022-10-16T06:51:02.365Z,0.495320022
2022-10-16T06:52:56.094Z,0.462840021
2022-10-16T06:54:03.256Z,0.560280025
2022-10-16T06:54:04.484Z,0.560280025
2022-10-16T06:54:06.644Z,0.560280025
2022-10-16T06:54:51.092Z,0.495320022
2022-10-16T06:55:50.326Z,0.430360019
2022-10-16T06:56:45.681Z,0.43848002
2022-10-16T06:57:45.273Z,0.544040024
2022-10-16T06:58:40.054Z,0.535920024
2022-10-16T06:59:37.208Z,0.609000027
2022-10-16T07:00:34.151Z,0.389760017
2022-10-16T07:02:30.537Z,0.600880027
2022-10-16T07:03:26.889Z,0.470960021
2022-10-16T07:04:25.815Z,0.470960021
2022-10-16T07:05:21.167Z,0.503440022
2022-10-16T07:06:20.090Z,0.479080021
2022-10-16T07:07:14.656Z,0.406000018
2022-10-16T07:08:14.996Z,0.633360028
2022-10-16T07:09:10.342Z,0.503440022
2022-10-16T07:10:09.923Z,0.617120028
2022-10-16T07:11:05.597Z,0.609000027
2022-10-16T07:12:08.453Z,0.568400025
2022-10-16T07:13:00.270Z,0.422240019
2022-10-16T07:13:59.756Z,0.771400034
2022-10-16T07:14:54.211Z,0.324800014
2022-10-16T07:15:53.651Z,0.633360028
2022-10-16T07:17:50.140Z,0.495320022
2022-10-16T07:18:44.733Z,0.730800033
2022-10-16T07:19:41.966Z,0.560280025
2022-10-16T07:20:41.381Z,0.690200031
2022-10-16T07:22:41.530Z,0.633360028
2022-10-16T07:23:34.136Z,0.552160025
2022-10-16T07:24:36.071Z,0.828240037
2022-10-16T07:25:31.254Z,0.649600029
2022-10-16T07:26:28.285Z,0.511560023
2022-10-16T07:27:27.390Z,0.88508004
2022-10-16T07:28:23.431Z,0.828240037
2022-10-16T07:29:28.271Z,0.852600038
2022-10-16T07:31:01.284Z,0.89320004
2022-10-16T07:32:04.620Z,1.177400112
2022-10-16T07:34:09.929Z,0.966280043
2022-10-16T07:35:06.339Z,0.88508004
2022-10-16T07:36:06.428Z,0.982520044
2022-10-16T07:37:00.928Z,0.958160043
2022-10-16T07:37:59.121Z,0.88508004
2022-10-16T07:38:55.634Z,1.015000105
2022-10-16T07:39:00.005Z,1.015000105
2022-10-16T07:39:53.099Z,0.941920042
2022-10-16T07:40:46.722Z,0.852600038
2022-10-16T07:41:48.085Z,1.023120046
2022-10-16T07:42:39.618Z,1.006880045
2022-10-16T07:43:38.265Z,1.023120046
2022-10-16T07:44:33.546Z,0.909440041
2022-10-16T07:45:31.755Z,1.12056005
2022-10-16T07:46:26.298Z,0.966280043
2022-10-16T07:48:17.900Z,0.990640044
2022-10-16T07:49:16.991Z,1.299200058
2022-10-16T07:50:15.526Z,1.112440109
2022-10-16T07:51:09.111Z,1.144920111
2022-10-16T07:53:04.189Z,1.104320049
2022-10-16T07:54:05.242Z,1.055600047
2022-10-16T07:54:56.680Z,1.461600065
2022-10-16T07:55:54.405Z,1.136800051
2022-10-16T07:56:53.931Z,1.015000105
2022-10-16T07:57:46.028Z,1.242360115
2022-10-16T07:58:43.384Z,1.331680059
2022-10-16T07:59:41.368Z,1.469720125
2022-10-16T08:00:34.943Z,1.282960057
2022-10-16T08:02:27.934Z,1.412880063
2022-10-16T08:03:24.975Z,1.315440059
2022-10-16T08:04:22.007Z,1.396640062
2022-10-16T08:05:15.574Z,1.144920111
2022-10-16T08:07:28.005Z,1.445360065
2022-10-16T08:08:28.028Z,1.542800069
2022-10-16T08:09:22.998Z,1.364160061
2022-10-16T08:10:20.827Z,1.396640062
2022-10-16T08:11:22.420Z,1.331680059
2022-10-16T08:13:22.126Z,1.201760054
2022-10-16T08:14:15.643Z,1.445360065
2022-10-16T08:15:15.719Z,1.315440059
2022-10-16T08:16:11.058Z,1.096199989
2022-10-16T08:18:07.267Z,1.57528007
2022-10-16T08:19:06.430Z,1.063719988
2022-10-16T08:20:01.567Z,1.079960108
2022-10-16T08:21:00.972Z,1.161159992
2022-10-16T08:21:57.792Z,0.828240037
2022-10-16T08:23:01.713Z,1.282960057
2022-10-16T08:23:58.399Z,1.494080067
2022-10-16T08:24:55.858Z,1.55904007
2022-10-16T08:25:52.038Z,1.55904007
2022-10-16T08:27:49.327Z,1.948800087
2022-10-16T08:28:48.628Z,1.534680128
2022-10-16T08:29:44.166Z,1.77828002
2022-10-16T08:30:44.174Z,1.607760072
2022-10-16T08:31:39.370Z,1.542800069
2022-10-16T08:32:39.513Z,1.672720075
2022-10-16T08:33:34.860Z,1.900080085
2022-10-16T08:34:35.006Z,2.257359982
2022-10-16T08:35:31.220Z,1.981280088
2022-10-16T08:36:29.916Z,2.387279987
2022-10-16T08:37:32.868Z,2.168040037
2022-10-16T08:38:26.362Z,2.971920013
2022-10-16T08:39:29.180Z,4.628400326
2022-10-16T08:41:25.754Z,10.57224083
2022-10-16T08:43:58.372Z,17.83964157
2022-10-16T08:46:01.838Z,-0.073080003
2022-10-16T08:46:07.458Z,18.68412018
2022-10-16T08:48:07.534Z,11.25432014
2022-10-16T08:49:04.462Z,12.20436096
2022-10-16T08:50:04.650Z,11.45732021
2022-10-16T08:51:00.701Z,10.22308064
2022-10-16T08:52:57.464Z,8.45291996
2022-10-16T08:54:31.771Z,7.259280205
2022-10-16T08:55:26.951Z,5.951960087
2022-10-16T08:56:26.992Z,5.895120144
2022-10-16T08:57:24.364Z,5.294239998
2022-10-16T08:58:21.985Z,4.758320332
2022-10-16T08:59:16.894Z,4.287360191
2022-10-16T09:00:13.966Z,3.80828023
2022-10-16T09:01:13.715Z,3.897600174
2022-10-16T09:03:05.759Z,3.978800297
2022-10-16T09:04:05.036Z,3.483480215
2022-10-16T09:04:59.689Z,3.394160271
2022-10-16T09:05:56.767Z,3.288600206
2022-10-16T09:06:55.944Z,3.069360256
2022-10-16T09:07:50.423Z,3.678360224
2022-10-16T09:08:47.843Z,3.045000076
2022-10-16T09:09:46.831Z,2.874480247
2022-10-16T09:10:41.401Z,2.728320122
2022-10-16T09:11:37.866Z,2.947560072
2022-10-16T09:12:36.730Z,2.533440113
2022-10-16T09:15:03.327Z,0.048720002
2022-10-16T09:15:09.132Z,3.832640171
2022-10-16T09:16:07.789Z,2.785160065
2022-10-16T09:18:03.509Z,3.093720198
2022-10-16T09:19:03.697Z,2.785160065
2022-10-16T09:19:59.210Z,3.142440081
2022-10-16T09:20:59.505Z,3.142440081
2022-10-16T09:21:55.734Z,3.613400221
2022-10-16T09:22:55.504Z,3.80828023
2022-10-16T09:23:51.049Z,4.01940012
2022-10-16T09:24:54.389Z,2.712080002
2022-10-16T09:25:47.015Z,2.639000177
2022-10-16T09:26:49.709Z,3.386040211
2022-10-16T09:27:42.685Z,3.442880154
2022-10-16T09:28:43.259Z,4.547200203
2022-10-16T09:29:39.321Z,3.491600037
2022-10-16T09:30:38.605Z,3.580920219
2022-10-16T09:31:34.449Z,3.865120173
2022-10-16T09:32:34.635Z,3.80016017
2022-10-16T09:33:30.071Z,4.01940012
2022-10-16T09:34:30.376Z,4.084360123
2022-10-16T09:35:26.515Z,4.774559975
2022-10-16T09:36:28.753Z,3.475360155
2022-10-16T09:38:21.406Z,3.857000113
2022-10-16T09:39:21.099Z,4.076240063
2022-10-16T09:40:16.617Z,2.655240059
2022-10-16T09:41:13.957Z,2.306080103
2022-10-16T09:42:13.548Z,2.362920046
2022-10-16T09:43:08.707Z,2.817640066
2022-10-16T09:44:08.033Z,2.68772006
2022-10-16T09:45:38.633Z,-0.056840003
2022-10-16T09:46:18.125Z,2.492840052
2022-10-16T09:47:16.486Z,2.371040106
2022-10-16T09:48:16.765Z,3.288600206
2022-10-16T09:49:12.227Z,3.467240095
2022-10-16T09:50:13.325Z,3.507840157
2022-10-16T09:51:08.636Z,2.752680063
2022-10-16T09:53:04.412Z,3.451000214
2022-10-16T09:54:04.848Z,3.532200098
2022-10-16T09:55:00.322Z,3.085600138
2022-10-16T09:56:03.144Z,3.118080139
2022-10-16T09:56:56.353Z,2.281720161
2022-10-16T09:57:56.264Z,2.582159996
2022-10-16T09:58:52.191Z,3.207400084
2022-10-16T09:59:51.863Z,2.92320013
2022-10-16T10:00:47.395Z,3.183040142
2022-10-16T10:02:43.483Z,3.654000282
2022-10-16T10:03:43.978Z,2.744560242
2022-10-16T10:04:39.396Z,3.215520144
2022-10-16T10:05:43.259Z,3.256120205
2022-10-16T10:06:37.497Z,3.629640102
2022-10-16T10:07:36.984Z,4.425400257
2022-10-16T10:08:32.559Z,4.02752018
2022-10-16T10:09:32.798Z,2.679600239
2022-10-16T10:10:30.205Z,4.660880089
2022-10-16T10:11:31.790Z,3.759560108
2022-10-16T10:13:28.213Z,2.91508007
2022-10-16T10:14:21.741Z,2.47660017
2022-10-16T10:15:24.993Z,5.115600109
2022-10-16T10:16:19.207Z,4.181800365
2022-10-16T10:17:22.029Z,7.015680313
2022-10-16T10:18:17.262Z,8.298640251
2022-10-16T10:19:17.337Z,6.05752039
2022-10-16T10:20:13.109Z,3.816400051
2022-10-16T10:21:11.763Z,4.685240269
2022-10-16T10:23:09.670Z,7.308000565
2022-10-16T10:24:13.783Z,8.387960434
2022-10-16T10:26:12.493Z,-0.040600002
2022-10-16T10:26:30.194Z,5.813920021
2022-10-16T10:28:29.252Z,6.01692009
2022-10-16T10:29:25.759Z,7.478520393
2022-10-16T10:30:25.680Z,4.725840092
2022-10-16T10:31:21.855Z,7.121240139
2022-10-16T10:33:18.903Z,7.470400333
2022-10-16T10:34:19.889Z,7.405440331
2022-10-16T10:35:16.158Z,7.340480328
2022-10-16T10:36:17.462Z,7.389200211
2022-10-16T10:38:13.817Z,4.95320034
2022-10-16T10:39:10.001Z,2.947560072
2022-10-16T10:40:09.261Z,2.46848011
2022-10-16T10:41:04.525Z,2.777040005
2022-10-16T10:42:04.015Z,2.038120031
2022-10-16T10:43:02.284Z,2.833880186
2022-10-16T10:43:57.686Z,2.988160133
2022-10-16T10:44:57.242Z,2.582159996
2022-10-16T10:45:53.505Z,3.491600037
2022-10-16T10:46:54.910Z,3.345440149
2022-10-16T10:47:47.629Z,3.191160202
2022-10-16T10:48:50.832Z,3.418520212
2022-10-16T10:49:46.694Z,3.337320089
2022-10-16T10:50:44.116Z,3.857000113
2022-10-16T10:52:39.380Z,3.572800159
2022-10-16T10:53:34.944Z,3.377920151
2022-10-16T10:54:37.593Z,3.272360086
2022-10-16T10:55:30.251Z,3.361680031
2022-10-16T10:56:32.677Z,2.436000109
2022-10-16T10:58:29.913Z,2.070600033
2022-10-16T10:58:35.125Z,2.070600033
2022-10-16T10:59:20.314Z,3.369800091
2022-10-16T11:00:20.254Z,2.777040005
2022-10-16T11:01:16.450Z,2.500960112
2022-10-16T11:03:10.560Z,3.061240196
2022-10-16T11:04:08.187Z,3.369800091
2022-10-16T11:05:07.961Z,2.086840153
2022-10-16T11:06:02.874Z,2.265480042
2022-10-16T11:08:40.911Z,3.605280161
2022-10-16T11:09:36.380Z,2.557800055
2022-10-16T11:10:35.303Z,2.955680132
2022-10-16T11:11:30.861Z,2.93132019
2022-10-16T11:12:33.121Z,2.2411201
2022-10-16T11:13:25.980Z,2.444120169
2022-10-16T11:14:25.586Z,2.176160097
2022-10-16T11:15:20.962Z,2.054360151
2022-10-16T11:16:21.764Z,2.574040174
2022-10-16T11:17:59.465Z,-0.081200004
2022-10-16T11:18:39.107Z,2.054360151
2022-10-16T11:19:38.273Z,2.257359982
2022-10-16T11:20:35.532Z,1.965040088
2022-10-16T11:21:35.534Z,1.827000141
2022-10-16T11:22:30.831Z,1.835120082
2022-10-16T11:23:32.904Z,2.265480042
2022-10-16T11:24:25.451Z,1.900080085
2022-10-16T11:25:25.535Z,1.705200076
2022-10-16T11:26:37.170Z,1.250480056
2022-10-16T11:27:37.565Z,2.2411201
2022-10-16T11:28:33.133Z,2.395400047
2022-10-16T11:29:35.765Z,1.56716013
2022-10-16T11:30:28.206Z,1.883840084
2022-10-16T11:31:28.333Z,2.2411201
2022-10-16T11:33:23.707Z,2.273600101
2022-10-16T11:34:18.841Z,2.379160166
2022-10-16T11:35:18.408Z,1.956920147
2022-10-16T11:36:13.856Z,1.34792006
2022-10-16T11:37:14.157Z,1.063719988
2022-10-16T11:38:12.007Z,1.201760054
2022-10-16T11:39:06.994Z,1.209880114
2022-10-16T11:40:08.964Z,1.161159992
2022-10-16T11:41:01.688Z,1.153040051
2022-10-16T11:42:03.623Z,1.315440059
2022-10-16T11:42:56.074Z,1.12056005
2022-10-16T11:43:58.213Z,1.071840048
2022-10-16T11:44:50.778Z,0.958160043
2022-10-16T11:45:47.559Z,0.828240037
2022-10-16T11:47:59.327Z,1.169280052
2022-10-16T11:47:59.363Z,1.169280052
2022-10-16T11:47:59.976Z,1.169280052
2022-10-16T11:49:59.095Z,1.291079998
2022-10-16T11:50:58.630Z,1.250480056
2022-10-16T11:53:17.533Z,1.372280121
2022-10-16T11:54:16.731Z,1.713320017
2022-10-16T11:55:14.490Z,1.932560086
2022-10-16T11:56:13.386Z,1.818880081
2022-10-16T11:58:07.771Z,2.208640099
2022-10-16T11:59:08.036Z,1.851360083
2022-10-16T12:00:03.363Z,1.859480143
2022-10-16T12:01:02.904Z,1.615880013
2022-10-16T12:01:57.816Z,1.591520071
2022-10-16T12:02:57.698Z,1.510320067
2022-10-16T12:03:53.214Z,1.429120064
2022-10-16T12:04:52.859Z,1.615880013
2022-10-16T12:05:50.346Z,1.372280121
2022-10-16T12:07:48.888Z,1.721440077
2022-10-16T12:08:42.229Z,0.941920042
2022-10-16T12:09:39.179Z,1.218000054
2022-10-16T12:11:35.188Z,1.762040138
2022-10-16T12:12:35.965Z,2.208640099
2022-10-16T12:13:33.299Z,1.632120132
2022-10-16T12:14:28.656Z,1.209880114
2022-10-16T12:15:47.011Z,1.055600047
2022-10-16T12:15:59.558Z,1.055600047
2022-10-16T12:16:24.477Z,1.177400112
2022-10-16T12:17:24.415Z,1.307320118
2022-10-16T12:18:20.499Z,1.331680059
2022-10-16T12:19:19.067Z,1.063719988